Time;durP1;ratioP1;P1;durP2;ratioP2;P2;SDS_P1;SDS_P2;PMS_P1;PMS_P2;Temp;Humidity;BMP_temperature;BMP_pressure;BME280_temperature;BME280_humidity;BME280_pressure;Samples;Min_cycle;Max_cycle;Signal;HPM_P1;HPM_P2
2023/06/18 00:00:13;;;;;;;13.30;7.50;;;;;;;-128.00;-1.00;-1.00;106384;1256;1012472;-76
2023/06/18 00:03:20;;;;;;;15.00;8.30;;;;;;;-128.00;-1.00;-1.00;106549;1254;1013241;-76
2023/06/18 00:06:07;;;;;;;13.90;8.30;;;;;;;-128.00;-1.00;-1.00;106753;1254;1010421;-74
2023/06/18 00:08:54;;;;;;;12.70;7.80;;;;;;;-128.00;-1.00;-1.00;106592;1256;1011798;-75
2023/06/18 00:11:40;;;;;;;14.30;8.20;;;;;;;-128.00;-1.00;-1.00;106428;1254;1012499;-74
2023/06/18 00:14:27;;;;;;;12.10;8.00;;;;;;;-128.00;-1.00;-1.00;106433;1254;1012313;-75
2023/06/18 00:17:14;;;;;;;13.80;7.90;;;;;;;-128.00;-1.00;-1.00;106672;1254;1013058;-76
2023/06/18 00:20:00;;;;;;;12.70;7.40;;;;;;;-128.00;-1.00;-1.00;106510;1256;1009618;-75
2023/06/18 00:22:48;;;;;;;12.20;7.10;;;;;;;-128.00;-1.00;-1.00;106575;1254;1010751;-76
2023/06/18 00:25:36;;;;;;;11.10;6.60;;;;;;;-128.00;-1.00;-1.00;106458;1254;1012536;-76
2023/06/18 00:28:22;;;;;;;13.40;7.90;;;;;;;-128.00;-1.00;-1.00;106472;1255;1011949;-75
2023/06/18 00:31:11;;;;;;;11.70;7.50;;;;;;;-128.00;-1.00;-1.00;106468;1254;1011927;-74
2023/06/18 00:34:05;;;;;;;11.70;7.90;;;;;;;-128.00;-1.00;-1.00;106557;1254;1010154;-72
2023/06/18 00:36:54;;;;;;;13.80;8.00;;;;;;;-128.00;-1.00;-1.00;106588;1254;1011323;-74
2023/06/18 00:39:40;;;;;;;11.20;7.30;;;;;;;-128.00;-1.00;-1.00;106481;1254;1012621;-75
2023/06/18 00:42:28;;;;;;;11.60;7.70;;;;;;;-128.00;-1.00;-1.00;106488;1254;1011878;-75
2023/06/18 00:45:16;;;;;;;13.20;7.30;;;;;;;-128.00;-1.00;-1.00;106586;1254;1012548;-75
2023/06/18 00:48:03;;;;;;;13.10;8.50;;;;;;;-128.00;-1.00;-1.00;106178;1267;1009759;-74
2023/06/18 00:50:50;;;;;;;13.90;8.20;;;;;;;-128.00;-1.00;-1.00;106040;1266;1011127;-76
2023/06/18 00:53:40;;;;;;;12.30;7.90;;;;;;;-128.00;-1.00;-1.00;105836;1266;1012683;-76
2023/06/18 00:56:29;;;;;;;12.00;8.00;;;;;;;-128.00;-1.00;-1.00;105777;1266;1012645;-74
2023/06/18 00:59:22;;;;;;;12.90;7.60;;;;;;;-128.00;-1.00;-1.00;105850;1266;1012203;-74
2023/06/18 01:02:09;;;;;;;13.60;8.30;;;;;;;-128.00;-1.00;-1.00;105791;1266;1009078;-73
2023/06/18 01:04:59;;;;;;;13.70;8.40;;;;;;;-128.00;-1.00;-1.00;105824;1266;1011386;-75
2023/06/18 01:07:50;;;;;;;13.30;7.50;;;;;;;-128.00;-1.00;-1.00;105768;1267;1012541;-73
2023/06/18 01:10:41;;;;;;;12.00;7.70;;;;;;;-128.00;-1.00;-1.00;105865;1266;1012548;-74
2023/06/18 01:13:36;;;;;;;12.80;7.00;;;;;;;-128.00;-1.00;-1.00;105977;1266;1012228;-75
2023/06/18 01:16:24;;;;;;;12.50;8.00;;;;;;;-128.00;-1.00;-1.00;105867;1266;1010242;-78
2023/06/18 01:19:35;;;;;;;12.50;7.60;;;;;;;-128.00;-1.00;-1.00;105818;1266;1010773;-76
2023/06/18 01:22:45;;;;;;;12.00;7.90;;;;;;;-128.00;-1.00;-1.00;105865;1265;1013201;-75
2023/06/18 01:25:32;;;;;;;13.10;8.50;;;;;;;-128.00;-1.00;-1.00;105921;1269;1012266;-74
2023/06/18 01:28:19;;;;;;;10.90;6.90;;;;;;;-128.00;-1.00;-1.00;105818;1270;1012416;-73
2023/06/18 01:31:06;;;;;;;13.60;7.60;;;;;;;-128.00;-1.00;-1.00;105615;1269;1009675;-73
2023/06/18 01:33:54;;;;;;;12.30;7.40;;;;;;;-128.00;-1.00;-1.00;105650;1268;1010865;-74
2023/06/18 01:37:15;;;;;;;11.20;7.00;;;;;;;-128.00;-1.00;-1.00;105677;1269;1012617;-75
2023/06/18 01:40:15;;;;;;;11.90;6.30;;;;;;;-128.00;-1.00;-1.00;105713;1269;1012798;-75
2023/06/18 01:43:11;;;;;;;11.90;6.70;;;;;;;-128.00;-1.00;-1.00;105747;1271;1013344;-73
2023/06/18 01:46:10;;;;;;;10.20;5.80;;;;;;;-128.00;-1.00;-1.00;105575;1269;1010067;-74
2023/06/18 01:49:04;;;;;;;10.80;6.00;;;;;;;-128.00;-1.00;-1.00;105799;1269;1011646;-73
2023/06/18 01:51:52;;;;;;;11.10;5.90;;;;;;;-128.00;-1.00;-1.00;105797;1269;1012395;-71
2023/06/18 01:54:40;;;;;;;9.50;5.80;;;;;;;-128.00;-1.00;-1.00;105627;1269;1013713;-72
2023/06/18 01:57:28;;;;;;;9.60;5.90;;;;;;;-128.00;-1.00;-1.00;105687;1268;1012885;-76
2023/06/18 02:00:14;;;;;;;9.40;5.20;;;;;;;-128.00;-1.00;-1.00;105758;1269;1009804;-73
2023/06/18 02:03:02;;;;;;;10.40;5.80;;;;;;;-128.00;-1.00;-1.00;105753;1268;1010613;-72
2023/06/18 02:05:50;;;;;;;10.40;5.80;;;;;;;-128.00;-1.00;-1.00;105799;1268;1011987;-73
2023/06/18 02:08:36;;;;;;;10.00;5.90;;;;;;;-128.00;-1.00;-1.00;105749;1268;1012414;-72
2023/06/18 02:11:23;;;;;;;9.80;5.10;;;;;;;-128.00;-1.00;-1.00;105626;1268;1013293;-71
2023/06/18 02:14:10;;;;;;;12.00;6.10;;;;;;;-128.00;-1.00;-1.00;105715;1271;1010168;-71
2023/06/18 02:16:57;;;;;;;9.20;5.40;;;;;;;-128.00;-1.00;-1.00;105341;1272;1012055;-70
2023/06/18 02:19:44;;;;;;;9.90;5.00;;;;;;;-128.00;-1.00;-1.00;105357;1272;1012814;-71
2023/06/18 02:22:31;;;;;;;10.60;5.50;;;;;;;-128.00;-1.00;-1.00;105376;1272;1012987;-71
2023/06/18 02:25:19;;;;;;;11.10;6.00;;;;;;;-128.00;-1.00;-1.00;105356;1271;1012881;-72
2023/06/18 02:28:06;;;;;;;11.70;6.10;;;;;;;-128.00;-1.00;-1.00;105341;1271;1009666;-73
2023/06/18 02:30:55;;;;;;;11.00;6.40;;;;;;;-128.00;-1.00;-1.00;105528;1271;1010695;-71
2023/06/18 02:33:42;;;;;;;10.10;6.20;;;;;;;-128.00;-1.00;-1.00;105395;1271;1012393;-73
2023/06/18 02:36:28;;;;;;;9.70;5.80;;;;;;;-128.00;-1.00;-1.00;105200;1271;1012843;-72
2023/06/18 02:39:16;;;;;;;12.00;6.00;;;;;;;-128.00;-1.00;-1.00;105298;1272;1012775;-73
2023/06/18 02:42:03;;;;;;;9.90;6.30;;;;;;;-128.00;-1.00;-1.00;105321;1271;1009944;-73
2023/06/18 02:44:50;;;;;;;10.50;6.10;;;;;;;-128.00;-1.00;-1.00;105443;1271;1011249;-73
2023/06/18 02:47:37;;;;;;;11.10;6.30;;;;;;;-128.00;-1.00;-1.00;105452;1272;1013266;-73
2023/06/18 02:50:24;;;;;;;11.10;6.20;;;;;;;-128.00;-1.00;-1.00;105485;1273;1012135;-72
2023/06/18 02:53:12;;;;;;;9.60;5.70;;;;;;;-128.00;-1.00;-1.00;105617;1269;1012451;-76
2023/06/18 02:55:58;;;;;;;10.30;6.30;;;;;;;-128.00;-1.00;-1.00;105699;1269;1009590;-77
2023/06/18 02:58:46;;;;;;;10.90;6.10;;;;;;;-128.00;-1.00;-1.00;105786;1269;1011010;-77
2023/06/18 03:01:33;;;;;;;10.90;5.90;;;;;;;-128.00;-1.00;-1.00;105525;1270;1013755;-76
2023/06/18 03:04:22;;;;;;;12.40;6.40;;;;;;;-128.00;-1.00;-1.00;105730;1269;1013264;-74
2023/06/18 03:07:09;;;;;;;10.20;5.70;;;;;;;-128.00;-1.00;-1.00;105451;1270;1012864;-75
2023/06/18 03:09:56;;;;;;;10.20;6.00;;;;;;;-128.00;-1.00;-1.00;105488;1270;1009617;-75
2023/06/18 03:12:42;;;;;;;10.30;6.00;;;;;;;-128.00;-1.00;-1.00;105587;1269;1010659;-77
2023/06/18 03:15:49;;;;;;;11.20;5.90;;;;;;;-128.00;-1.00;-1.00;105548;1269;1013151;-78
2023/06/18 03:18:37;;;;;;;10.60;6.10;;;;;;;-128.00;-1.00;-1.00;105447;1270;1012865;-77
2023/06/18 03:21:24;;;;;;;9.70;6.00;;;;;;;-128.00;-1.00;-1.00;105606;1269;1013074;-75
2023/06/18 03:24:14;;;;;;;10.80;5.70;;;;;;;-128.00;-1.00;-1.00;105615;1269;1009245;-79
2023/06/18 03:27:01;;;;;;;11.50;6.50;;;;;;;-128.00;-1.00;-1.00;105588;1270;1010939;-76
2023/06/18 03:29:48;;;;;;;10.70;6.20;;;;;;;-128.00;-1.00;-1.00;105562;1270;1012718;-75
2023/06/18 03:32:35;;;;;;;9.30;5.50;;;;;;;-128.00;-1.00;-1.00;105635;1273;1012650;-78
2023/06/18 03:35:22;;;;;;;11.10;6.10;;;;;;;-128.00;-1.00;-1.00;105834;1269;1012552;-76
2023/06/18 03:38:09;;;;;;;10.90;6.30;;;;;;;-128.00;-1.00;-1.00;105791;1268;1010296;-78
2023/06/18 03:40:56;;;;;;;9.60;5.60;;;;;;;-128.00;-1.00;-1.00;105320;1272;1011516;-73
2023/06/18 03:43:42;;;;;;;10.30;6.40;;;;;;;-128.00;-1.00;-1.00;105458;1272;1012297;-74
2023/06/18 03:46:31;;;;;;;10.10;5.80;;;;;;;-128.00;-1.00;-1.00;105165;1274;1012320;-72
2023/06/18 03:49:18;;;;;;;9.60;5.30;;;;;;;-128.00;-1.00;-1.00;105156;1273;1012441;-73
2023/06/18 03:52:05;;;;;;;10.90;6.00;;;;;;;-128.00;-1.00;-1.00;105216;1273;1009811;-72
2023/06/18 03:54:52;;;;;;;9.70;6.10;;;;;;;-128.00;-1.00;-1.00;105173;1273;1011312;-73
2023/06/18 03:57:39;;;;;;;10.70;5.90;;;;;;;-128.00;-1.00;-1.00;105290;1272;1012662;-69
2023/06/18 04:00:27;;;;;;;9.90;5.60;;;;;;;-128.00;-1.00;-1.00;105314;1272;1012191;-72
2023/06/18 04:03:17;;;;;;;9.90;5.70;;;;;;;-128.00;-1.00;-1.00;105486;1272;1013426;-71
2023/06/18 04:06:04;;;;;;;8.80;5.30;;;;;;;-128.00;-1.00;-1.00;105570;1271;1010320;-72
2023/06/18 04:08:50;;;;;;;11.50;5.70;;;;;;;-128.00;-1.00;-1.00;105538;1272;1011016;-71
2023/06/18 04:11:42;;;;;;;9.50;5.10;;;;;;;-128.00;-1.00;-1.00;105557;1268;1012329;-71
2023/06/18 04:14:29;;;;;;;10.40;5.60;;;;;;;-128.00;-1.00;-1.00;105808;1269;1012831;-73
2023/06/18 04:17:15;;;;;;;10.00;5.20;;;;;;;-128.00;-1.00;-1.00;105664;1270;1013551;-74
2023/06/18 04:20:03;;;;;;;9.20;4.60;;;;;;;-128.00;-1.00;-1.00;105729;1269;1010027;-73
2023/06/18 04:22:50;;;;;;;9.50;5.30;;;;;;;-128.00;-1.00;-1.00;105572;1269;1011026;-74
2023/06/18 04:25:40;;;;;;;9.30;5.10;;;;;;;-128.00;-1.00;-1.00;105794;1269;1013359;-75
2023/06/18 04:28:27;;;;;;;8.40;4.50;;;;;;;-128.00;-1.00;-1.00;105852;1268;1012514;-72
2023/06/18 04:31:13;;;;;;;8.60;4.70;;;;;;;-128.00;-1.00;-1.00;105389;1268;1012073;-70
2023/06/18 04:34:00;;;;;;;10.50;4.50;;;;;;;-128.00;-1.00;-1.00;105568;1269;1009867;-71
2023/06/18 04:36:46;;;;;;;9.70;4.70;;;;;;;-128.00;-1.00;-1.00;105596;1268;1010643;-70
2023/06/18 04:39:36;;;;;;;9.70;5.20;;;;;;;-128.00;-1.00;-1.00;105729;1269;1012889;-69
2023/06/18 04:42:22;;;;;;;9.60;5.30;;;;;;;-128.00;-1.00;-1.00;105814;1268;1012325;-69
2023/06/18 04:45:10;;;;;;;9.00;4.80;;;;;;;-128.00;-1.00;-1.00;105547;1269;1013490;-72
2023/06/18 04:47:57;;;;;;;8.30;4.50;;;;;;;-128.00;-1.00;-1.00;105752;1268;1009382;-71
2023/06/18 04:50:43;;;;;;;8.40;4.70;;;;;;;-128.00;-1.00;-1.00;105544;1268;1010819;-72
2023/06/18 04:53:30;;;;;;;9.00;4.50;;;;;;;-128.00;-1.00;-1.00;105629;1269;1011924;-72
2023/06/18 04:56:19;;;;;;;9.00;4.60;;;;;;;-128.00;-1.00;-1.00;105376;1273;1013031;-71
2023/06/18 04:59:06;;;;;;;9.80;4.70;;;;;;;-128.00;-1.00;-1.00;105563;1269;1012173;-70
2023/06/18 05:01:53;;;;;;;9.80;5.00;;;;;;;-128.00;-1.00;-1.00;105749;1269;1009877;-73
2023/06/18 05:04:41;;;;;;;7.90;4.00;;;;;;;-128.00;-1.00;-1.00;105684;1268;1010508;-72
2023/06/18 05:07:28;;;;;;;8.20;4.30;;;;;;;-128.00;-1.00;-1.00;105719;1268;1012826;-76
2023/06/18 05:10:17;;;;;;;8.40;4.00;;;;;;;-128.00;-1.00;-1.00;105581;1273;1013071;-72
2023/06/18 05:13:05;;;;;;;7.60;3.90;;;;;;;-128.00;-1.00;-1.00;105553;1269;1013879;-75
2023/06/18 05:15:53;;;;;;;8.10;3.90;;;;;;;-128.00;-1.00;-1.00;105473;1268;1010519;-75
2023/06/18 05:18:39;;;;;;;7.30;3.50;;;;;;;-128.00;-1.00;-1.00;105735;1268;1010480;-72
2023/06/18 05:21:27;;;;;;;6.90;3.40;;;;;;;-128.00;-1.00;-1.00;105565;1269;1012035;-71
2023/06/18 05:24:14;;;;;;;7.20;3.50;;;;;;;-128.00;-1.00;-1.00;105677;1269;1012510;-74
2023/06/18 05:27:01;;;;;;;7.20;3.40;;;;;;;-128.00;-1.00;-1.00;105545;1269;1013874;-76
2023/06/18 05:29:47;;;;;;;7.60;3.70;;;;;;;-128.00;-1.00;-1.00;105548;1269;1009453;-75
2023/06/18 05:32:34;;;;;;;7.70;3.60;;;;;;;-128.00;-1.00;-1.00;105691;1268;1011177;-72
2023/06/18 05:35:23;;;;;;;7.70;3.80;;;;;;;-128.00;-1.00;-1.00;105687;1269;1011971;-76
2023/06/18 05:38:14;;;;;;;6.50;3.20;;;;;;;-128.00;-1.00;-1.00;105327;1269;1013047;-73
2023/06/18 05:41:00;;;;;;;6.90;3.30;;;;;;;-128.00;-1.00;-1.00;105688;1269;1012956;-75
2023/06/18 05:43:49;;;;;;;6.90;3.30;;;;;;;-128.00;-1.00;-1.00;105309;1269;1010161;-74
2023/06/18 05:46:35;;;;;;;7.40;3.40;;;;;;;-128.00;-1.00;-1.00;105429;1269;1011387;-73
2023/06/18 05:49:22;;;;;;;7.40;3.50;;;;;;;-128.00;-1.00;-1.00;105803;1269;1013641;-74
2023/06/18 05:52:09;;;;;;;7.40;3.30;;;;;;;-128.00;-1.00;-1.00;105291;1273;1012970;-73
2023/06/18 05:54:57;;;;;;;7.40;3.50;;;;;;;-128.00;-1.00;-1.00;105238;1273;1012452;-74
2023/06/18 05:57:44;;;;;;;7.30;3.60;;;;;;;-128.00;-1.00;-1.00;105046;1273;1009770;-76
2023/06/18 06:00:32;;;;;;;7.00;3.40;;;;;;;-128.00;-1.00;-1.00;105153;1273;1011369;-78
2023/06/18 06:03:19;;;;;;;8.20;3.30;;;;;;;-128.00;-1.00;-1.00;105136;1273;1012172;-76
2023/06/18 06:06:05;;;;;;;7.10;3.30;;;;;;;-128.00;-1.00;-1.00;105147;1273;1012100;-76
2023/06/18 06:08:52;;;;;;;7.30;3.60;;;;;;;-128.00;-1.00;-1.00;105324;1273;1012388;-76
2023/06/18 06:11:39;;;;;;;7.10;3.50;;;;;;;-128.00;-1.00;-1.00;105041;1273;1010906;-77
2023/06/18 06:14:30;;;;;;;7.50;3.40;;;;;;;-128.00;-1.00;-1.00;105275;1273;1010900;-73
2023/06/18 06:17:18;;;;;;;7.00;3.50;;;;;;;-128.00;-1.00;-1.00;105010;1275;1013406;-75
2023/06/18 06:20:07;;;;;;;6.60;3.30;;;;;;;-128.00;-1.00;-1.00;104816;1275;1012778;-77
2023/06/18 06:22:57;;;;;;;7.30;3.70;;;;;;;-128.00;-1.00;-1.00;105081;1272;1013267;-78
2023/06/18 06:25:45;;;;;;;7.00;3.80;;;;;;;-128.00;-1.00;-1.00;105133;1272;1010071;-73
2023/06/18 06:28:32;;;;;;;7.30;3.50;;;;;;;-128.00;-1.00;-1.00;105226;1272;1011461;-79
2023/06/18 06:31:18;;;;;;;7.90;3.40;;;;;;;-128.00;-1.00;-1.00;105102;1272;1011989;-78
2023/06/18 06:34:06;;;;;;;7.40;3.80;;;;;;;-128.00;-1.00;-1.00;105039;1272;1012643;-76
2023/06/18 06:36:53;;;;;;;8.50;3.50;;;;;;;-128.00;-1.00;-1.00;105072;1272;1013726;-76
2023/06/18 06:39:42;;;;;;;8.10;4.00;;;;;;;-128.00;-1.00;-1.00;105486;1272;1009836;-74
2023/06/18 06:42:29;;;;;;;8.00;4.30;;;;;;;-128.00;-1.00;-1.00;105557;1272;1010543;-76
2023/06/18 06:45:34;;;;;;;8.20;3.90;;;;;;;-128.00;-1.00;-1.00;105297;1272;1013376;-73
2023/06/18 06:48:40;;;;;;;8.50;3.70;;;;;;;-128.00;-1.00;-1.00;105568;1273;1012300;-77
2023/06/18 06:51:47;;;;;;;9.00;4.10;;;;;;;-128.00;-1.00;-1.00;105330;1268;1013380;-76
2023/06/18 06:54:34;;;;;;;8.30;3.90;;;;;;;-128.00;-1.00;-1.00;105823;1269;1010616;-73
2023/06/18 06:57:21;;;;;;;8.50;4.30;;;;;;;-128.00;-1.00;-1.00;105544;1269;1011640;-74
2023/06/18 07:00:10;;;;;;;8.10;4.00;;;;;;;-128.00;-1.00;-1.00;105713;1268;1012719;-77
2023/06/18 07:02:57;;;;;;;7.70;4.00;;;;;;;-128.00;-1.00;-1.00;105577;1270;1012746;-77
2023/06/18 07:05:44;;;;;;;9.40;4.20;;;;;;;-128.00;-1.00;-1.00;105598;1270;1013144;-79
2023/06/18 07:08:32;;;;;;;8.90;4.20;;;;;;;-128.00;-1.00;-1.00;105299;1270;1009495;-75
2023/06/18 07:11:21;;;;;;;9.60;4.30;;;;;;;-128.00;-1.00;-1.00;105449;1270;1011091;-76
2023/06/18 07:14:08;;;;;;;7.40;3.80;;;;;;;-128.00;-1.00;-1.00;105535;1270;1011986;-73
2023/06/18 07:16:55;;;;;;;8.30;3.80;;;;;;;-128.00;-1.00;-1.00;105542;1273;1012437;-74
2023/06/18 07:19:41;;;;;;;7.80;4.00;;;;;;;-128.00;-1.00;-1.00;105541;1270;1012513;-72
2023/06/18 07:22:28;;;;;;;7.80;4.40;;;;;;;-128.00;-1.00;-1.00;105521;1270;1009822;-72
2023/06/18 07:25:18;;;;;;;7.90;4.40;;;;;;;-128.00;-1.00;-1.00;105476;1270;1011476;-74
2023/06/18 07:28:07;;;;;;;10.40;4.20;;;;;;;-128.00;-1.00;-1.00;105520;1270;1012904;-78
2023/06/18 07:30:56;;;;;;;9.50;4.10;;;;;;;-128.00;-1.00;-1.00;105167;1272;1012063;-75
2023/06/18 07:33:43;;;;;;;9.60;4.10;;;;;;;-128.00;-1.00;-1.00;105341;1270;1012649;-74
2023/06/18 07:36:30;;;;;;;10.00;4.10;;;;;;;-128.00;-1.00;-1.00;105327;1270;1010291;-76
2023/06/18 07:39:17;;;;;;;9.90;4.50;;;;;;;-128.00;-1.00;-1.00;105129;1274;1011398;-74
2023/06/18 07:42:06;;;;;;;8.40;4.10;;;;;;;-128.00;-1.00;-1.00;105072;1274;1013002;-70
2023/06/18 07:44:52;;;;;;;7.80;4.30;;;;;;;-128.00;-1.00;-1.00;105091;1275;1012046;-72
2023/06/18 07:47:40;;;;;;;10.30;4.40;;;;;;;-128.00;-1.00;-1.00;104983;1276;1013217;-73
2023/06/18 07:50:27;;;;;;;9.40;3.90;;;;;;;-128.00;-1.00;-1.00;104988;1276;1010199;-70
2023/06/18 07:53:14;;;;;;;8.50;4.60;;;;;;;-128.00;-1.00;-1.00;104761;1276;1010910;-73
2023/06/18 07:56:00;;;;;;;8.90;4.20;;;;;;;-128.00;-1.00;-1.00;104998;1277;1013396;-71
2023/06/18 07:58:47;;;;;;;8.20;4.30;;;;;;;-128.00;-1.00;-1.00;104508;1281;1013239;-75
2023/06/18 08:01:36;;;;;;;8.90;4.40;;;;;;;-128.00;-1.00;-1.00;104321;1281;1012364;-69
2023/06/18 08:04:23;;;;;;;9.10;4.50;;;;;;;-128.00;-1.00;-1.00;104297;1280;1009689;-70
2023/06/18 08:07:10;;;;;;;8.00;4.30;;;;;;;-128.00;-1.00;-1.00;104608;1279;1011244;-71
2023/06/18 08:09:57;;;;;;;9.50;4.40;;;;;;;-128.00;-1.00;-1.00;104636;1279;1012652;-72
2023/06/18 08:12:43;;;;;;;8.30;4.40;;;;;;;-128.00;-1.00;-1.00;104455;1280;1012942;-73
2023/06/18 08:15:32;;;;;;;7.60;4.10;;;;;;;-128.00;-1.00;-1.00;104537;1279;1012069;-72
2023/06/18 08:18:20;;;;;;;9.10;4.20;;;;;;;-128.00;-1.00;-1.00;104919;1272;1009921;-72
2023/06/18 08:21:07;;;;;;;8.30;4.30;;;;;;;-128.00;-1.00;-1.00;104797;1276;1011801;-71
2023/06/18 08:23:55;;;;;;;8.30;4.30;;;;;;;-128.00;-1.00;-1.00;104735;1277;1012207;-68
2023/06/18 08:26:41;;;;;;;7.30;3.60;;;;;;;-128.00;-1.00;-1.00;104785;1277;1013097;-67
2023/06/18 08:29:28;;;;;;;8.90;4.20;;;;;;;-128.00;-1.00;-1.00;104993;1273;1012746;-68
2023/06/18 08:32:14;;;;;;;7.80;4.00;;;;;;;-128.00;-1.00;-1.00;105059;1273;1009667;-68
2023/06/18 08:35:01;;;;;;;7.60;3.80;;;;;;;-128.00;-1.00;-1.00;105101;1273;1011657;-70
2023/06/18 08:37:48;;;;;;;9.30;4.50;;;;;;;-128.00;-1.00;-1.00;105198;1273;1012688;-66
2023/06/18 08:40:46;;;;;;;9.80;4.70;;;;;;;-128.00;-1.00;-1.00;105169;1277;1012517;-67
2023/06/18 08:43:37;;;;;;;9.00;4.40;;;;;;;-128.00;-1.00;-1.00;105308;1273;1012396;-66
2023/06/18 08:46:26;;;;;;;8.70;4.60;;;;;;;-128.00;-1.00;-1.00;105110;1273;1009949;-70
2023/06/18 08:49:15;;;;;;;7.70;4.20;;;;;;;-128.00;-1.00;-1.00;105367;1273;1011023;-68
2023/06/18 08:52:08;;;;;;;7.70;3.90;;;;;;;-128.00;-1.00;-1.00;105297;1269;1013178;-72
2023/06/18 08:54:59;;;;;;;8.60;4.00;;;;;;;-128.00;-1.00;-1.00;105624;1269;1012402;-68
2023/06/18 08:58:05;;;;;;;7.80;4.10;;;;;;;-128.00;-1.00;-1.00;105641;1270;1013448;-67
2023/06/18 09:00:53;;;;;;;8.90;4.40;;;;;;;-128.00;-1.00;-1.00;105574;1270;1009871;-70
2023/06/18 09:03:42;;;;;;;8.80;4.60;;;;;;;-128.00;-1.00;-1.00;105433;1269;1010655;-72
2023/06/18 09:06:29;;;;;;;7.80;3.90;;;;;;;-128.00;-1.00;-1.00;105722;1270;1013007;-69
2023/06/18 09:09:19;;;;;;;7.60;3.90;;;;;;;-128.00;-1.00;-1.00;105443;1269;1012392;-71
2023/06/18 09:12:06;;;;;;;10.60;4.20;;;;;;;-128.00;-1.00;-1.00;105420;1270;1013105;-73
2023/06/18 09:14:53;;;;;;;8.40;4.10;;;;;;;-128.00;-1.00;-1.00;105283;1270;1010489;-72
2023/06/18 09:17:47;;;;;;;7.80;4.20;;;;;;;-128.00;-1.00;-1.00;105655;1270;1010965;-73
2023/06/18 09:20:35;;;;;;;9.10;4.10;;;;;;;-128.00;-1.00;-1.00;105392;1270;1013202;-74
2023/06/18 09:23:21;;;;;;;7.50;4.10;;;;;;;-128.00;-1.00;-1.00;105696;1270;1011882;-71
2023/06/18 09:26:12;;;;;;;9.20;4.60;;;;;;;-128.00;-1.00;-1.00;105398;1270;1012481;-74
2023/06/18 09:29:03;;;;;;;8.20;4.50;;;;;;;-128.00;-1.00;-1.00;105514;1270;1009628;-72
2023/06/18 09:31:49;;;;;;;8.30;4.00;;;;;;;-128.00;-1.00;-1.00;105413;1270;1012008;-72
2023/06/18 09:34:38;;;;;;;9.30;4.60;;;;;;;-128.00;-1.00;-1.00;105583;1270;1012541;-70
2023/06/18 09:37:26;;;;;;;8.30;4.00;;;;;;;-128.00;-1.00;-1.00;105668;1270;1012486;-70
2023/06/18 09:40:21;;;;;;;9.30;4.90;;;;;;;-128.00;-1.00;-1.00;105503;1270;1012791;-69
2023/06/18 09:43:10;;;;;;;8.90;4.30;;;;;;;-128.00;-1.00;-1.00;105549;1270;1010594;-71
2023/06/18 09:45:56;;;;;;;11.20;5.70;;;;;;;-128.00;-1.00;-1.00;105534;1271;1011652;-72
2023/06/18 09:48:46;;;;;;;7.90;4.50;;;;;;;-128.00;-1.00;-1.00;105559;1270;1012679;-70
2023/06/18 09:51:40;;;;;;;11.20;4.50;;;;;;;-128.00;-1.00;-1.00;105337;1274;1013009;-71
2023/06/18 09:54:41;;;;;;;8.50;4.30;;;;;;;-128.00;-1.00;-1.00;105669;1270;1012714;-72
2023/06/18 09:57:48;;;;;;;8.90;4.60;;;;;;;-128.00;-1.00;-1.00;105735;1268;1010376;-70
2023/06/18 10:00:34;;;;;;;8.40;4.40;;;;;;;-128.00;-1.00;-1.00;105828;1269;1010913;-69
2023/06/18 10:03:25;;;;;;;8.90;3.90;;;;;;;-128.00;-1.00;-1.00;105800;1269;1012545;-72
2023/06/18 10:06:22;;;;;;;8.50;4.50;;;;;;;-128.00;-1.00;-1.00;105517;1269;1012050;-69
2023/06/18 10:09:10;;;;;;;8.40;4.40;;;;;;;-128.00;-1.00;-1.00;105748;1268;1012809;-69
2023/06/18 10:11:59;;;;;;;8.30;4.50;;;;;;;-128.00;-1.00;-1.00;105705;1268;1009469;-71
2023/06/18 10:14:53;;;;;;;8.40;4.50;;;;;;;-128.00;-1.00;-1.00;105606;1268;1011137;-73
2023/06/18 10:17:50;;;;;;;11.10;4.60;;;;;;;-128.00;-1.00;-1.00;105808;1269;1013070;-68
2023/06/18 10:20:37;;;;;;;9.70;5.20;;;;;;;-128.00;-1.00;-1.00;105807;1269;1011973;-71
2023/06/18 10:23:27;;;;;;;9.00;4.70;;;;;;;-128.00;-1.00;-1.00;105778;1268;1012568;-68
2023/06/18 10:26:13;;;;;;;8.80;4.70;;;;;;;-128.00;-1.00;-1.00;105886;1268;1009773;-70
2023/06/18 10:29:01;;;;;;;9.60;5.10;;;;;;;-128.00;-1.00;-1.00;105815;1268;1010687;-72
2023/06/18 10:31:50;;;;;;;9.50;5.10;;;;;;;-128.00;-1.00;-1.00;105847;1269;1012353;-70
2023/06/18 10:34:39;;;;;;;9.00;5.00;;;;;;;-128.00;-1.00;-1.00;105872;1272;1013550;-68
2023/06/18 10:37:27;;;;;;;9.30;5.30;;;;;;;-128.00;-1.00;-1.00;105768;1269;1012640;-67
2023/06/18 10:40:14;;;;;;;10.00;5.30;;;;;;;-128.00;-1.00;-1.00;105749;1268;1010228;-71
2023/06/18 10:43:06;;;;;;;10.70;5.60;;;;;;;-128.00;-1.00;-1.00;105631;1269;1011106;-70
2023/06/18 10:46:12;;;;;;;10.90;5.70;;;;;;;-128.00;-1.00;-1.00;105874;1268;1012666;-70
2023/06/18 10:49:20;;;;;;;9.20;5.20;;;;;;;-128.00;-1.00;-1.00;105593;1269;1012030;-69
2023/06/18 10:52:14;;;;;;;10.60;5.60;;;;;;;-128.00;-1.00;-1.00;105646;1269;1013964;-69
2023/06/18 10:55:20;;;;;;;9.90;5.20;;;;;;;-128.00;-1.00;-1.00;105787;1268;1009209;-69
2023/06/18 10:58:07;;;;;;;8.20;4.50;;;;;;;-128.00;-1.00;-1.00;105730;1269;1010790;-70
2023/06/18 11:00:54;;;;;;;8.30;5.30;;;;;;;-128.00;-1.00;-1.00;105776;1269;1011970;-67
2023/06/18 11:03:40;;;;;;;8.60;4.60;;;;;;;-128.00;-1.00;-1.00;105828;1269;1011929;-70
2023/06/18 11:06:31;;;;;;;8.40;5.00;;;;;;;-128.00;-1.00;-1.00;105568;1269;1012000;-68
2023/06/18 11:09:17;;;;;;;9.40;5.20;;;;;;;-128.00;-1.00;-1.00;105643;1269;1009233;-68
2023/06/18 11:12:17;;;;;;;8.50;4.50;;;;;;;-128.00;-1.00;-1.00;105529;1271;1010852;-69
2023/06/18 11:15:07;;;;;;;8.80;4.90;;;;;;;-128.00;-1.00;-1.00;105716;1270;1012879;-68
2023/06/18 11:17:55;;;;;;;8.30;5.20;;;;;;;-128.00;-1.00;-1.00;105572;1271;1012366;-68
2023/06/18 11:20:46;;;;;;;8.80;5.00;;;;;;;-128.00;-1.00;-1.00;105476;1271;1014216;-71
2023/06/18 11:23:33;;;;;;;9.70;5.10;;;;;;;-128.00;-1.00;-1.00;105545;1270;1010305;-71
2023/06/18 11:26:20;;;;;;;9.20;5.00;;;;;;;-128.00;-1.00;-1.00;105435;1269;1011779;-71
2023/06/18 11:29:07;;;;;;;10.10;4.80;;;;;;;-128.00;-1.00;-1.00;105653;1269;1013500;-72
2023/06/18 11:31:54;;;;;;;7.90;4.50;;;;;;;-128.00;-1.00;-1.00;105599;1273;1012737;-72
2023/06/18 11:34:44;;;;;;;8.30;4.50;;;;;;;-128.00;-1.00;-1.00;105537;1270;1012472;-70
2023/06/18 11:37:43;;;;;;;8.90;4.50;;;;;;;-128.00;-1.00;-1.00;105563;1270;1010538;-72
2023/06/18 11:40:29;;;;;;;7.90;4.30;;;;;;;-128.00;-1.00;-1.00;105442;1270;1011835;-68
2023/06/18 11:43:16;;;;;;;8.60;4.20;;;;;;;-128.00;-1.00;-1.00;105490;1269;1013368;-73
2023/06/18 11:46:02;;;;;;;7.70;4.20;;;;;;;-128.00;-1.00;-1.00;105569;1269;1014675;-71
2023/06/18 11:48:49;;;;;;;8.30;4.40;;;;;;;-128.00;-1.00;-1.00;105520;1269;1013730;-72
2023/06/18 11:51:39;;;;;;;9.80;4.80;;;;;;;-128.00;-1.00;-1.00;105589;1269;1010653;-72
2023/06/18 11:54:26;;;;;;;8.80;5.10;;;;;;;-128.00;-1.00;-1.00;105555;1270;1010017;-71
2023/06/18 11:57:14;;;;;;;9.10;4.50;;;;;;;-128.00;-1.00;-1.00;105563;1268;1011791;-72
2023/06/18 12:00:10;;;;;;;9.20;5.00;;;;;;;-128.00;-1.00;-1.00;105776;1269;1013247;-73
2023/06/18 12:03:02;;;;;;;10.30;5.30;;;;;;;-128.00;-1.00;-1.00;105753;1269;1012902;-72
2023/06/18 12:05:50;;;;;;;11.20;5.30;;;;;;;-128.00;-1.00;-1.00;105609;1268;1009944;-72
2023/06/18 12:08:44;;;;;;;13.00;5.60;;;;;;;-128.00;-1.00;-1.00;105759;1269;1011634;-71
2023/06/18 12:12:14;;;;;;;11.80;6.00;;;;;;;-128.00;-1.00;-1.00;105849;1269;1012412;-71
2023/06/18 12:15:22;;;;;;;11.00;5.30;;;;;;;-128.00;-1.00;-1.00;105648;1269;1013720;-71
2023/06/18 12:18:32;;;;;;;9.90;5.60;;;;;;;-128.00;-1.00;-1.00;105820;1269;1012218;-67
2023/06/18 12:21:19;;;;;;;10.70;6.10;;;;;;;-128.00;-1.00;-1.00;105851;1270;1010144;-67
2023/06/18 12:24:06;;;;;;;11.10;5.80;;;;;;;-128.00;-1.00;-1.00;105774;1270;1010679;-73
2023/06/18 12:26:53;;;;;;;12.20;6.00;;;;;;;-128.00;-1.00;-1.00;105554;1269;1012392;-69
2023/06/18 12:29:42;;;;;;;10.50;6.00;;;;;;;-128.00;-1.00;-1.00;105549;1277;1012651;-71
2023/06/18 12:32:29;;;;;;;9.80;5.50;;;;;;;-128.00;-1.00;-1.00;105766;1270;1012884;-72
2023/06/18 12:35:21;;;;;;;11.20;6.10;;;;;;;-128.00;-1.00;-1.00;105655;1270;1009478;-74
2023/06/18 12:38:10;;;;;;;10.40;5.90;;;;;;;-128.00;-1.00;-1.00;105728;1267;1011133;-74
2023/06/18 12:40:58;;;;;;;9.60;5.90;;;;;;;-128.00;-1.00;-1.00;105811;1269;1012685;-70
2023/06/18 12:43:45;;;;;;;10.10;6.10;;;;;;;-128.00;-1.00;-1.00;105750;1270;1013153;-70
2023/06/18 12:46:33;;;;;;;11.90;6.00;;;;;;;-128.00;-1.00;-1.00;105746;1269;1012907;-67
2023/06/18 12:49:22;;;;;;;10.20;6.00;;;;;;;-128.00;-1.00;-1.00;105708;1269;1010374;-66
2023/06/18 12:52:17;;;;;;;10.70;6.00;;;;;;;-128.00;-1.00;-1.00;105781;1268;1011146;-68
2023/06/18 12:55:08;;;;;;;12.00;6.30;;;;;;;-128.00;-1.00;-1.00;105605;1272;1012724;-70